sensor_id;sensor_type;location;lat;lon;timestamp;pressure;altitude;pressure_sealevel;temperature;humidity
7918;BME280;4004;42.624;23.386;2023-03-22T00:01:15;93788.53;;;9.89;100.00
7918;BME280;4004;42.624;23.386;2023-03-22T00:03:44;93782.03;;;9.90;100.00
7918;BME280;4004;42.624;23.386;2023-03-22T00:06:11;93782.28;;;9.81;100.00
7918;BME280;4004;42.624;23.386;2023-03-22T00:08:38;93781.84;;;9.79;100.00
7918;BME280;4004;42.624;23.386;2023-03-22T00:11:05;93771.41;;;9.74;100.00
7918;BME280;4004;42.624;23.386;2023-03-22T00:13:35;93781.44;;;9.77;100.00
7918;BME280;4004;42.624;23.386;2023-03-22T00:16:02;93778.31;;;9.75;100.00
7918;BME280;4004;42.624;23.386;2023-03-22T00:18:29;93777.91;;;9.73;100.00
7918;BME280;4004;42.624;23.386;2023-03-22T00:20:57;93780.94;;;9.71;100.00
7918;BME280;4004;42.624;23.386;2023-03-22T00:23:25;93778.63;;;9.70;100.00
7918;BME280;4004;42.624;23.386;2023-03-22T00:25:52;93780.19;;;9.71;100.00
7918;BME280;4004;42.624;23.386;2023-03-22T00:28:18;93776.00;;;9.73;100.00
7918;BME280;4004;42.624;23.386;2023-03-22T00:30:52;93772.88;;;9.71;100.00
7918;BME280;4004;42.624;23.386;2023-03-22T00:33:20;93775.94;;;9.70;100.00
7918;BME280;4004;42.624;23.386;2023-03-22T00:35:48;93765.63;;;9.72;100.00
7918;BME280;4004;42.624;23.386;2023-03-22T00:38:15;93775.19;;;9.69;100.00
7918;BME280;4004;42.624;23.386;2023-03-22T00:40:41;93769.00;;;9.69;100.00
7918;BME280;4004;42.624;23.386;2023-03-22T00:43:08;93770.19;;;9.71;100.00
7918;BME280;4004;42.624;23.386;2023-03-22T00:45:35;93766.75;;;9.71;100.00
7918;BME280;4004;42.624;23.386;2023-03-22T00:48:06;93762.56;;;9.73;100.00
7918;BME280;4004;42.624;23.386;2023-03-22T00:50:33;93757.59;;;9.72;100.00
7918;BME280;4004;42.624;23.386;2023-03-22T00:52:59;93758.41;;;9.76;100.00
7918;BME280;4004;42.624;23.386;2023-03-22T00:55:26;93765.75;;;9.79;100.00
7918;BME280;4004;42.624;23.386;2023-03-22T00:57:53;93761.16;;;9.80;100.00
7918;BME280;4004;42.624;23.386;2023-03-22T01:00:20;93759.97;;;9.77;100.00
7918;BME280;4004;42.624;23.386;2023-03-22T01:02:46;93761.75;;;9.69;100.00
7918;BME280;4004;42.624;23.386;2023-03-22T01:05:15;93745.25;;;9.67;100.00
7918;BME280;4004;42.624;23.386;2023-03-22T01:07:42;93755.31;;;9.74;100.00
7918;BME280;4004;42.624;23.386;2023-03-22T01:10:09;93756.13;;;9.78;100.00
7918;BME280;4004;42.624;23.386;2023-03-22T01:12:36;93754.38;;;9.63;100.00
7918;BME280;4004;42.624;23.386;2023-03-22T01:15:03;93751.97;;;9.58;100.00
7918;BME280;4004;42.624;23.386;2023-03-22T01:17:29;93747.44;;;9.62;100.00
7918;BME280;4004;42.624;23.386;2023-03-22T01:19:56;93748.19;;;9.62;100.00
7918;BME280;4004;42.624;23.386;2023-03-22T01:22:24;93747.53;;;9.69;100.00
7918;BME280;4004;42.624;23.386;2023-03-22T01:24:51;93743.97;;;9.61;100.00
7918;BME280;4004;42.624;23.386;2023-03-22T01:27:18;93742.72;;;9.55;100.00
7918;BME280;4004;42.624;23.386;2023-03-22T01:29:45;93738.19;;;9.36;100.00
7918;BME280;4004;42.624;23.386;2023-03-22T01:32:11;93735.19;;;9.41;100.00
7918;BME280;4004;42.624;23.386;2023-03-22T01:34:38;93735.44;;;9.32;100.00
7918;BME280;4004;42.624;23.386;2023-03-22T01:37:05;93730.94;;;9.40;100.00
7918;BME280;4004;42.624;23.386;2023-03-22T01:39:33;93738.00;;;9.25;100.00
7918;BME280;4004;42.624;23.386;2023-03-22T01:42:01;93737.44;;;9.16;100.00
7918;BME280;4004;42.624;23.386;2023-03-22T01:44:29;93727.91;;;9.19;100.00
7918;BME280;4004;42.624;23.386;2023-03-22T01:46:55;93731.81;;;9.25;100.00
7918;BME280;4004;42.624;23.386;2023-03-22T01:49:24;93733.03;;;9.27;100.00
7918;BME280;4004;42.624;23.386;2023-03-22T01:51:55;93728.50;;;9.31;100.00
7918;BME280;4004;42.624;23.386;2023-03-22T01:54:28;93732.50;;;9.18;100.00
7918;BME280;4004;42.624;23.386;2023-03-22T01:56:59;93728.06;;;9.06;100.00
7918;BME280;4004;42.624;23.386;2023-03-22T01:59:26;93731.94;;;9.09;100.00
7918;BME280;4004;42.624;23.386;2023-03-22T02:01:53;93729.97;;;9.06;100.00
7918;BME280;4004;42.624;23.386;2023-03-22T02:04:21;93728.19;;;9.13;100.00
7918;BME280;4004;42.624;23.386;2023-03-22T02:06:50;93733.97;;;9.16;100.00
7918;BME280;4004;42.624;23.386;2023-03-22T02:09:19;93733.63;;;9.17;100.00
7918;BME280;4004;42.624;23.386;2023-03-22T02:11:49;93725.91;;;9.16;100.00
7918;BME280;4004;42.624;23.386;2023-03-22T02:14:38;93723.94;;;9.12;100.00
7918;BME280;4004;42.624;23.386;2023-03-22T02:17:17;93736.94;;;9.10;100.00
7918;BME280;4004;42.624;23.386;2023-03-22T02:20:04;93734.19;;;9.07;100.00
7918;BME280;4004;42.624;23.386;2023-03-22T02:28:34;93736.72;;;9.19;100.00
7918;BME280;4004;42.624;23.386;2023-03-22T02:37:41;93748.22;;;9.20;100.00
7918;BME280;4004;42.624;23.386;2023-03-22T02:40:16;93742.94;;;9.23;100.00
7918;BME280;4004;42.624;23.386;2023-03-22T02:42:54;93754.56;;;9.31;100.00
7918;BME280;4004;42.624;23.386;2023-03-22T02:45:25;93749.19;;;9.31;100.00
7918;BME280;4004;42.624;23.386;2023-03-22T02:48:02;93746.88;;;9.29;100.00
7918;BME280;4004;42.624;23.386;2023-03-22T02:50:37;93752.28;;;9.33;100.00
7918;BME280;4004;42.624;23.386;2023-03-22T02:53:09;93758.31;;;9.26;100.00
7918;BME280;4004;42.624;23.386;2023-03-22T02:55:43;93756.81;;;9.29;100.00
7918;BME280;4004;42.624;23.386;2023-03-22T02:58:16;93760.63;;;9.28;100.00
7918;BME280;4004;42.624;23.386;2023-03-22T03:00:45;93765.06;;;9.20;100.00
7918;BME280;4004;42.624;23.386;2023-03-22T03:03:15;93758.91;;;9.16;100.00
7918;BME280;4004;42.624;23.386;2023-03-22T03:05:45;93753.44;;;9.12;100.00
7918;BME280;4004;42.624;23.386;2023-03-22T03:08:15;93753.59;;;9.20;100.00
7918;BME280;4004;42.624;23.386;2023-03-22T03:10:45;93754.72;;;9.19;100.00
7918;BME280;4004;42.624;23.386;2023-03-22T03:13:14;93758.91;;;9.16;100.00
7918;BME280;4004;42.624;23.386;2023-03-22T03:15:43;93757.28;;;9.11;100.00
7918;BME280;4004;42.624;23.386;2023-03-22T03:18:18;93764.59;;;9.15;100.00
7918;BME280;4004;42.624;23.386;2023-03-22T03:20:57;93760.78;;;9.16;100.00
7918;BME280;4004;42.624;23.386;2023-03-22T03:23:33;93759.13;;;9.07;100.00
7918;BME280;4004;42.624;23.386;2023-03-22T03:26:07;93759.97;;;9.11;100.00
7918;BME280;4004;42.624;23.386;2023-03-22T03:28:41;93759.97;;;8.92;100.00
7918;BME280;4004;42.624;23.386;2023-03-22T03:31:19;93761.63;;;9.00;100.00
7918;BME280;4004;42.624;23.386;2023-03-22T03:33:56;93759.53;;;9.09;100.00
7918;BME280;4004;42.624;23.386;2023-03-22T03:36:26;93757.97;;;9.08;100.00
7918;BME280;4004;42.624;23.386;2023-03-22T03:38:56;93764.09;;;9.09;100.00
7918;BME280;4004;42.624;23.386;2023-03-22T03:41:27;93767.22;;;9.11;100.00
7918;BME280;4004;42.624;23.386;2023-03-22T03:43:55;93768.91;;;9.00;100.00
7918;BME280;4004;42.624;23.386;2023-03-22T03:46:23;93769.13;;;9.10;100.00
7918;BME280;4004;42.624;23.386;2023-03-22T03:48:51;93771.66;;;9.03;100.00
7918;BME280;4004;42.624;23.386;2023-03-22T03:51:20;93770.75;;;8.96;100.00
7918;BME280;4004;42.624;23.386;2023-03-22T03:53:47;93768.66;;;9.05;100.00
7918;BME280;4004;42.624;23.386;2023-03-22T03:56:14;93769.53;;;9.12;100.00
7918;BME280;4004;42.624;23.386;2023-03-22T03:58:42;93771.66;;;9.03;100.00
7918;BME280;4004;42.624;23.386;2023-03-22T04:01:09;93778.22;;;9.06;100.00
7918;BME280;4004;42.624;23.386;2023-03-22T04:03:36;93780.19;;;9.09;100.00
7918;BME280;4004;42.624;23.386;2023-03-22T04:06:03;93772.88;;;9.06;100.00
7918;BME280;4004;42.624;23.386;2023-03-22T04:08:30;93772.16;;;9.09;100.00
7918;BME280;4004;42.624;23.386;2023-03-22T04:10:57;93772.56;;;9.11;100.00
7918;BME280;4004;42.624;23.386;2023-03-22T04:13:24;93777.16;;;9.10;100.00
7918;BME280;4004;42.624;23.386;2023-03-22T04:15:55;93784.88;;;9.12;100.00
7918;BME280;4004;42.624;23.386;2023-03-22T04:18:26;93781.13;;;8.97;100.00
7918;BME280;4004;42.624;23.386;2023-03-22T04:20:54;93787.34;;;9.01;100.00
7918;BME280;4004;42.624;23.386;2023-03-22T04:23:21;93778.94;;;8.83;100.00
7918;BME280;4004;42.624;23.386;2023-03-22T04:25:50;93782.28;;;8.80;100.00
7918;BME280;4004;42.624;23.386;2023-03-22T04:28:16;93784.78;;;8.89;100.00
7918;BME280;4004;42.624;23.386;2023-03-22T04:30:44;93789.28;;;9.04;100.00
7918;BME280;4004;42.624;23.386;2023-03-22T04:33:16;93786.34;;;9.09;100.00
7918;BME280;4004;42.624;23.386;2023-03-22T04:35:43;93798.19;;;9.08;100.00
7918;BME280;4004;42.624;23.386;2023-03-22T04:38:11;93799.75;;;9.09;100.00
7918;BME280;4004;42.624;23.386;2023-03-22T04:40:38;93792.41;;;9.06;100.00
7918;BME280;4004;42.624;23.386;2023-03-22T04:43:10;93796.16;;;9.21;100.00
7918;BME280;4004;42.624;23.386;2023-03-22T04:45:37;93805.69;;;9.19;100.00
7918;BME280;4004;42.624;23.386;2023-03-22T04:48:04;93798.88;;;9.25;100.00
7918;BME280;4004;42.624;23.386;2023-03-22T04:50:33;93794.25;;;9.22;100.00
7918;BME280;4004;42.624;23.386;2023-03-22T04:53:00;93801.81;;;9.16;100.00
7918;BME280;4004;42.624;23.386;2023-03-22T04:55:27;93813.22;;;9.13;100.00
7918;BME280;4004;42.624;23.386;2023-03-22T04:57:54;93806.75;;;9.14;100.00
7918;BME280;4004;42.624;23.386;2023-03-22T05:00:21;93809.44;;;9.14;100.00
7918;BME280;4004;42.624;23.386;2023-03-22T05:02:47;93816.41;;;8.99;100.00
7918;BME280;4004;42.624;23.386;2023-03-22T05:05:14;93817.69;;;9.05;100.00
7918;BME280;4004;42.624;23.386;2023-03-22T05:07:42;93820.63;;;9.00;100.00
7918;BME280;4004;42.624;23.386;2023-03-22T05:10:09;93821.47;;;9.04;100.00
7918;BME280;4004;42.624;23.386;2023-03-22T05:12:36;93821.63;;;9.11;100.00
7918;BME280;4004;42.624;23.386;2023-03-22T05:15:03;93814.56;;;9.03;100.00
7918;BME280;4004;42.624;23.386;2023-03-22T05:17:31;93826.63;;;9.13;100.00
7918;BME280;4004;42.624;23.386;2023-03-22T05:19:57;93829.81;;;8.99;100.00
7918;BME280;4004;42.624;23.386;2023-03-22T05:22:31;93825.53;;;9.14;100.00
7918;BME280;4004;42.624;23.386;2023-03-22T05:25:00;93832.13;;;9.20;100.00
7918;BME280;4004;42.624;23.386;2023-03-22T05:27:27;93832.63;;;9.26;100.00
7918;BME280;4004;42.624;23.386;2023-03-22T05:29:59;93837.56;;;9.24;100.00
7918;BME280;4004;42.624;23.386;2023-03-22T05:32:26;93829.41;;;9.17;100.00
7918;BME280;4004;42.624;23.386;2023-03-22T05:34:53;93831.03;;;9.21;100.00
7918;BME280;4004;42.624;23.386;2023-03-22T05:37:20;93825.88;;;9.12;100.00
7918;BME280;4004;42.624;23.386;2023-03-22T05:39:47;93838.28;;;9.21;100.00
7918;BME280;4004;42.624;23.386;2023-03-22T05:42:15;93833.13;;;9.31;100.00
7918;BME280;4004;42.624;23.386;2023-03-22T05:44:42;93835.88;;;9.35;100.00
7918;BME280;4004;42.624;23.386;2023-03-22T05:47:09;93837.06;;;9.38;100.00
7918;BME280;4004;42.624;23.386;2023-03-22T05:49:35;93842.88;;;9.40;100.00
7918;BME280;4004;42.624;23.386;2023-03-22T05:52:02;93846.47;;;9.47;100.00
7918;BME280;4004;42.624;23.386;2023-03-22T05:54:30;93836.50;;;9.48;100.00
7918;BME280;4004;42.624;23.386;2023-03-22T05:56:57;93859.47;;;9.45;100.00
7918;BME280;4004;42.624;23.386;2023-03-22T05:59:26;93853.03;;;9.50;100.00
7918;BME280;4004;42.624;23.386;2023-03-22T06:01:53;93856.19;;;9.55;100.00
7918;BME280;4004;42.624;23.386;2023-03-22T06:04:19;93855.84;;;9.57;100.00
7918;BME280;4004;42.624;23.386;2023-03-22T06:06:46;93860.72;;;9.51;100.00
7918;BME280;4004;42.624;23.386;2023-03-22T06:09:13;93859.94;;;9.51;100.00
7918;BME280;4004;42.624;23.386;2023-03-22T06:11:40;93867.94;;;9.47;100.00
7918;BME280;4004;42.624;23.386;2023-03-22T06:14:07;93866.66;;;9.41;100.00
7918;BME280;4004;42.624;23.386;2023-03-22T06:16:35;93874.59;;;9.34;100.00
7918;BME280;4004;42.624;23.386;2023-03-22T06:19:02;93871.31;;;9.44;100.00
7918;BME280;4004;42.624;23.386;2023-03-22T06:21:28;93875.19;;;9.47;100.00
7918;BME280;4004;42.624;23.386;2023-03-22T06:23:55;93874.63;;;9.57;100.00
7918;BME280;4004;42.624;23.386;2023-03-22T06:26:22;93870.03;;;9.58;100.00
7918;BME280;4004;42.624;23.386;2023-03-22T06:28:49;93875.84;;;9.60;100.00
7918;BME280;4004;42.624;23.386;2023-03-22T06:31:15;93883.66;;;9.68;100.00
7918;BME280;4004;42.624;23.386;2023-03-22T06:33:43;93874.84;;;9.68;100.00
7918;BME280;4004;42.624;23.386;2023-03-22T06:36:10;93875.75;;;9.75;100.00
7918;BME280;4004;42.624;23.386;2023-03-22T06:38:37;93873.44;;;9.74;100.00
7918;BME280;4004;42.624;23.386;2023-03-22T06:41:04;93874.13;;;9.71;100.00
7918;BME280;4004;42.624;23.386;2023-03-22T06:43:31;93870.03;;;9.77;100.00
7918;BME280;4004;42.624;23.386;2023-03-22T06:45:58;93883.69;;;9.91;100.00
7918;BME280;4004;42.624;23.386;2023-03-22T06:48:25;93877.09;;;10.08;100.00
7918;BME280;4004;42.624;23.386;2023-03-22T06:50:53;93856.38;;;10.09;100.00
7918;BME280;4004;42.624;23.386;2023-03-22T06:53:20;93889.50;;;10.36;100.00
7918;BME280;4004;42.624;23.386;2023-03-22T06:55:46;93889.31;;;10.48;100.00
7918;BME280;4004;42.624;23.386;2023-03-22T06:58:13;93894.63;;;10.45;100.00
7918;BME280;4004;42.624;23.386;2023-03-22T07:00:40;93891.94;;;10.45;100.00
7918;BME280;4004;42.624;23.386;2023-03-22T07:03:06;93904.84;;;10.35;100.00
7918;BME280;4004;42.624;23.386;2023-03-22T07:05:33;93905.22;;;10.34;100.00
7918;BME280;4004;42.624;23.386;2023-03-22T07:08:01;93903.63;;;10.33;100.00
7918;BME280;4004;42.624;23.386;2023-03-22T07:10:28;93908.09;;;10.25;100.00
7918;BME280;4004;42.624;23.386;2023-03-22T07:12:55;93906.34;;;10.13;100.00
7918;BME280;4004;42.624;23.386;2023-03-22T07:15:22;93908.59;;;10.11;100.00
7918;BME280;4004;42.624;23.386;2023-03-22T07:17:49;93923.91;;;10.07;100.00
7918;BME280;4004;42.624;23.386;2023-03-22T07:20:16;93915.47;;;10.09;100.00
7918;BME280;4004;42.624;23.386;2023-03-22T07:22:43;93918.53;;;10.07;100.00
7918;BME280;4004;42.624;23.386;2023-03-22T07:25:12;93917.03;;;10.10;100.00
7918;BME280;4004;42.624;23.386;2023-03-22T07:27:38;93925.75;;;10.03;100.00
7918;BME280;4004;42.624;23.386;2023-03-22T07:30:06;93927.84;;;10.13;100.00
7918;BME280;4004;42.624;23.386;2023-03-22T07:32:33;93934.44;;;10.16;100.00
7918;BME280;4004;42.624;23.386;2023-03-22T07:35:00;93926.38;;;10.16;100.00
7918;BME280;4004;42.624;23.386;2023-03-22T07:37:27;93942.94;;;10.22;100.00
7918;BME280;4004;42.624;23.386;2023-03-22T07:39:53;93940.69;;;10.24;100.00
7918;BME280;4004;42.624;23.386;2023-03-22T07:42:21;93942.75;;;10.11;100.00
7918;BME280;4004;42.624;23.386;2023-03-22T07:44:48;93940.16;;;10.14;100.00
7918;BME280;4004;42.624;23.386;2023-03-22T07:47:15;93943.72;;;10.22;100.00
7918;BME280;4004;42.624;23.386;2023-03-22T07:49:42;93937.13;;;10.16;100.00
7918;BME280;4004;42.624;23.386;2023-03-22T07:52:09;93939.78;;;10.16;100.00
7918;BME280;4004;42.624;23.386;2023-03-22T07:54:36;93942.59;;;10.23;100.00
7918;BME280;4004;42.624;23.386;2023-03-22T07:57:03;93945.34;;;10.27;100.00
7918;BME280;4004;42.624;23.386;2023-03-22T07:59:32;93950.38;;;10.28;100.00
7918;BME280;4004;42.624;23.386;2023-03-22T08:01:59;93952.63;;;10.26;100.00
7918;BME280;4004;42.624;23.386;2023-03-22T08:04:26;93948.41;;;10.25;100.00
7918;BME280;4004;42.624;23.386;2023-03-22T08:06:53;93949.94;;;10.26;100.00
7918;BME280;4004;42.624;23.386;2023-03-22T08:09:23;93950.66;;;10.23;100.00
7918;BME280;4004;42.624;23.386;2023-03-22T08:11:50;93947.56;;;10.21;100.00
7918;BME280;4004;42.624;23.386;2023-03-22T08:14:17;93947.22;;;10.23;100.00
7918;BME280;4004;42.624;23.386;2023-03-22T08:16:45;93942.59;;;10.23;100.00
7918;BME280;4004;42.624;23.386;2023-03-22T08:19:12;93948.47;;;10.29;100.00
7918;BME280;4004;42.624;23.386;2023-03-22T08:21:39;93952.34;;;10.31;100.00
7918;BME280;4004;42.624;23.386;2023-03-22T08:24:06;93941.59;;;10.31;100.00
7918;BME280;4004;42.624;23.386;2023-03-22T08:26:33;93954.38;;;10.38;100.00
7918;BME280;4004;42.624;23.386;2023-03-22T08:29:00;93924.91;;;10.22;100.00
7918;BME280;4004;42.624;23.386;2023-03-22T08:31:27;93960.69;;;10.46;100.00
7918;BME280;4004;42.624;23.386;2023-03-22T08:33:56;93956.06;;;10.46;100.00
7918;BME280;4004;42.624;23.386;2023-03-22T08:36:23;93956.06;;;10.46;100.00
7918;BME280;4004;42.624;23.386;2023-03-22T08:38:50;93931.47;;;10.25;100.00
7918;BME280;4004;42.624;23.386;2023-03-22T08:41:17;93954.53;;;10.45;100.00
7918;BME280;4004;42.624;23.386;2023-03-22T08:43:44;93962.94;;;10.44;100.00
7918;BME280;4004;42.624;23.386;2023-03-22T08:46:11;93962.19;;;10.43;100.00
7918;BME280;4004;42.624;23.386;2023-03-22T08:48:37;93962.09;;;10.40;100.00
7918;BME280;4004;42.624;23.386;2023-03-22T08:51:07;93963.59;;;10.37;100.00
7918;BME280;4004;42.624;23.386;2023-03-22T08:53:34;93960.25;;;10.44;100.00
7918;BME280;4004;42.624;23.386;2023-03-22T08:56:01;93960.03;;;10.52;100.00
7918;BME280;4004;42.624;23.386;2023-03-22T08:58:28;93962.41;;;10.57;100.00
7918;BME280;4004;42.624;23.386;2023-03-22T09:00:55;93967.47;;;10.63;100.00
7918;BME280;4004;42.624;23.386;2023-03-22T09:03:22;93966.06;;;10.69;100.00
7918;BME280;4004;42.624;23.386;2023-03-22T09:05:49;93965.81;;;10.77;100.00
7918;BME280;4004;42.624;23.386;2023-03-22T09:08:17;93970.94;;;10.86;100.00
7918;BME280;4004;42.624;23.386;2023-03-22T09:10:44;93976.81;;;10.92;100.00
7918;BME280;4004;42.624;23.386;2023-03-22T09:13:12;93978.78;;;10.95;100.00
7918;BME280;4004;42.624;23.386;2023-03-22T09:15:40;93975.34;;;10.98;100.00
7918;BME280;4004;42.624;23.386;2023-03-22T09:18:08;93974.66;;;11.01;100.00
7918;BME280;4004;42.624;23.386;2023-03-22T09:20:35;93976.59;;;11.04;100.00
7918;BME280;4004;42.624;23.386;2023-03-22T09:23:02;93980.06;;;11.05;100.00
7918;BME280;4004;42.624;23.386;2023-03-22T09:25:30;93980.53;;;11.10;100.00
7918;BME280;4004;42.624;23.386;2023-03-22T09:27:57;93982.91;;;11.15;100.00
7918;BME280;4004;42.624;23.386;2023-03-22T09:30:24;93975.94;;;11.11;100.00
7918;BME280;4004;42.624;23.386;2023-03-22T09:32:51;93975.22;;;11.14;100.00
7918;BME280;4004;42.624;23.386;2023-03-22T09:35:18;93979.53;;;11.18;100.00
7918;BME280;4004;42.624;23.386;2023-03-22T09:37:45;93984.41;;;11.13;100.00
7918;BME280;4004;42.624;23.386;2023-03-22T09:40:13;93980.22;;;11.15;100.00
7918;BME280;4004;42.624;23.386;2023-03-22T09:42:45;93974.06;;;11.15;100.00
7918;BME280;4004;42.624;23.386;2023-03-22T09:45:15;93979.34;;;11.08;100.00
7918;BME280;4004;42.624;23.386;2023-03-22T09:47:45;93977.84;;;11.10;100.00
7918;BME280;4004;42.624;23.386;2023-03-22T09:50:19;93979.78;;;11.10;100.00
7918;BME280;4004;42.624;23.386;2023-03-22T09:52:46;93980.75;;;11.25;100.00
7918;BME280;4004;42.624;23.386;2023-03-22T09:55:18;93988.09;;;11.28;100.00
7918;BME280;4004;42.624;23.386;2023-03-22T09:57:55;93979.41;;;11.38;100.00
7918;BME280;4004;42.624;23.386;2023-03-22T10:00:27;93982.47;;;11.36;100.00
7918;BME280;4004;42.624;23.386;2023-03-22T10:03:04;93978.97;;;11.36;100.00
7918;BME280;4004;42.624;23.386;2023-03-22T10:05:38;93994.78;;;11.37;100.00
7918;BME280;4004;42.624;23.386;2023-03-22T10:08:22;93992.09;;;11.37;100.00
7918;BME280;4004;42.624;23.386;2023-03-22T10:10:52;93991.25;;;11.33;100.00
7918;BME280;4004;42.624;23.386;2023-03-22T10:13:25;93991.56;;;11.28;100.00
7918;BME280;4004;42.624;23.386;2023-03-22T10:15:57;93993.50;;;11.28;100.00
7918;BME280;4004;42.624;23.386;2023-03-22T10:18:26;93998.47;;;11.26;100.00
7918;BME280;4004;42.624;23.386;2023-03-22T10:20:58;93990.13;;;11.34;100.00
7918;BME280;4004;42.624;23.386;2023-03-22T10:23:29;93994.34;;;11.35;100.00
7918;BME280;4004;42.624;23.386;2023-03-22T10:25:58;93989.66;;;11.29;100.00
7918;BME280;4004;42.624;23.386;2023-03-22T10:28:33;93997.63;;;11.22;100.00
7918;BME280;4004;42.624;23.386;2023-03-22T10:31:03;94002.69;;;11.27;100.00
7918;BME280;4004;42.624;23.386;2023-03-22T10:33:37;93996.13;;;11.24;100.00
7918;BME280;4004;42.624;23.386;2023-03-22T10:36:10;93993.25;;;11.13;100.00
7918;BME280;4004;42.624;23.386;2023-03-22T10:38:45;93990.56;;;11.13;100.00
7918;BME280;4004;42.624;23.386;2023-03-22T10:41:16;93990.47;;;11.06;100.00
7918;BME280;4004;42.624;23.386;2023-03-22T10:43:48;94003.47;;;11.01;100.00
7918;BME280;4004;42.624;23.386;2023-03-22T10:46:19;93986.94;;;11.02;100.00
7918;BME280;4004;42.624;23.386;2023-03-22T10:48:48;94001.53;;;11.01;100.00
7918;BME280;4004;42.624;23.386;2023-03-22T10:51:21;94003.03;;;10.98;100.00
7918;BME280;4004;42.624;23.386;2023-03-22T10:53:52;93988.38;;;10.96;100.00
7918;BME280;4004;42.624;23.386;2023-03-22T10:56:20;94002.13;;;10.91;100.00
7918;BME280;4004;42.624;23.386;2023-03-22T10:58:49;93992.69;;;10.77;100.00
7918;BME280;4004;42.624;23.386;2023-03-22T11:01:24;93996.00;;;10.90;100.00
7918;BME280;4004;42.624;23.386;2023-03-22T11:03:55;93989.41;;;10.88;100.00
7918;BME280;4004;42.624;23.386;2023-03-22T11:06:24;93989.84;;;10.90;100.00
7918;BME280;4004;42.624;23.386;2023-03-22T11:08:58;94000.19;;;10.88;100.00
7918;BME280;4004;42.624;23.386;2023-03-22T11:11:27;93987.44;;;10.85;100.00
7918;BME280;4004;42.624;23.386;2023-03-22T11:13:59;93998.31;;;10.92;100.00
7918;BME280;4004;42.624;23.386;2023-03-22T11:16:28;93990.59;;;10.90;100.00
7918;BME280;4004;42.624;23.386;2023-03-22T11:18:56;93985.31;;;10.94;100.00
7918;BME280;4004;42.624;23.386;2023-03-22T11:21:28;93985.41;;;11.01;100.00
7918;BME280;4004;42.624;23.386;2023-03-22T11:23:57;93981.56;;;11.02;100.00
7918;BME280;4004;42.624;23.386;2023-03-22T11:26:29;93982.41;;;11.06;100.00
7918;BME280;4004;42.624;23.386;2023-03-22T11:29:10;93983.84;;;11.00;100.00
7918;BME280;4004;42.624;23.386;2023-03-22T11:31:55;93970.75;;;10.98;100.00
7918;BME280;4004;42.624;23.386;2023-03-22T11:34:26;93982.59;;;10.94;100.00
7918;BME280;4004;42.624;23.386;2023-03-22T11:36:53;93979.09;;;10.90;100.00
7918;BME280;4004;42.624;23.386;2023-03-22T11:39:23;93985.53;;;10.85;100.00
7918;BME280;4004;42.624;23.386;2023-03-22T11:41:50;93980.16;;;10.85;100.00
7918;BME280;4004;42.624;23.386;2023-03-22T11:44:21;93981.94;;;10.77;100.00
7918;BME280;4004;42.624;23.386;2023-03-22T11:46:51;93976.03;;;10.68;100.00
7918;BME280;4004;42.624;23.386;2023-03-22T11:49:20;93978.72;;;10.68;100.00
7918;BME280;4004;42.624;23.386;2023-03-22T11:51:51;93981.19;;;10.77;100.00
7918;BME280;4004;42.624;23.386;2023-03-22T11:54:26;93979.22;;;10.74;100.00
7918;BME280;4004;42.624;23.386;2023-03-22T11:56:55;93979.38;;;10.62;100.00
7918;BME280;4004;42.624;23.386;2023-03-22T11:59:27;93976.63;;;10.58;100.00
7918;BME280;4004;42.624;23.386;2023-03-22T12:01:59;93980.63;;;10.68;100.00
7918;BME280;4004;42.624;23.386;2023-03-22T12:04:31;93979.97;;;10.74;100.00
7918;BME280;4004;42.624;23.386;2023-03-22T12:07:02;93982.25;;;10.72;100.00
7918;BME280;4004;42.624;23.386;2023-03-22T12:09:37;93978.06;;;10.75;100.00
7918;BME280;4004;42.624;23.386;2023-03-22T12:12:11;93987.75;;;10.79;100.00
7918;BME280;4004;42.624;23.386;2023-03-22T12:14:46;93978.19;;;10.82;100.00
7918;BME280;4004;42.624;23.386;2023-03-22T12:17:17;93983.72;;;10.93;100.00
7918;BME280;4004;42.624;23.386;2023-03-22T12:19:52;93975.81;;;11.04;100.00
7918;BME280;4004;42.624;23.386;2023-03-22T12:22:28;93976.44;;;11.20;100.00
7918;BME280;4004;42.624;23.386;2023-03-22T12:24:56;93973.50;;;11.29;100.00
7918;BME280;4004;42.624;23.386;2023-03-22T12:27:25;93975.91;;;11.34;100.00
7918;BME280;4004;42.624;23.386;2023-03-22T12:29:57;93983.75;;;11.46;100.00
7918;BME280;4004;42.624;23.386;2023-03-22T12:32:27;93984.16;;;11.48;100.00
7918;BME280;4004;42.624;23.386;2023-03-22T12:34:56;93980.09;;;11.61;100.00
7918;BME280;4004;42.624;23.386;2023-03-22T12:37:26;93975.91;;;11.64;100.00
7918;BME280;4004;42.624;23.386;2023-03-22T12:39:57;93971.81;;;11.74;100.00
7918;BME280;4004;42.624;23.386;2023-03-22T12:42:28;93969.03;;;11.97;100.00
7918;BME280;4004;42.624;23.386;2023-03-22T12:45:02;93958.34;;;12.04;100.00
7918;BME280;4004;42.624;23.386;2023-03-22T12:47:35;93971.28;;;12.25;100.00
7918;BME280;4004;42.624;23.386;2023-03-22T12:50:11;93967.56;;;12.40;100.00
7918;BME280;4004;42.624;23.386;2023-03-22T12:52:41;93973.44;;;12.50;100.00
7918;BME280;4004;42.624;23.386;2023-03-22T12:55:17;93966.53;;;12.52;100.00
7918;BME280;4004;42.624;23.386;2023-03-22T12:57:47;93966.16;;;12.54;100.00
7918;BME280;4004;42.624;23.386;2023-03-22T13:00:19;93970.84;;;12.60;100.00
7918;BME280;4004;42.624;23.386;2023-03-22T13:02:48;93963.59;;;12.68;100.00
7918;BME280;4004;42.624;23.386;2023-03-22T13:05:19;93960.59;;;12.80;100.00
7918;BME280;4004;42.624;23.386;2023-03-22T13:07:51;93964.13;;;12.84;99.28
7918;BME280;4004;42.624;23.386;2023-03-22T13:10:49;93966.19;;;13.02;98.47
7918;BME280;4004;42.624;23.386;2023-03-22T13:13:39;93963.84;;;12.97;95.84
7918;BME280;4004;42.624;23.386;2023-03-22T13:16:20;93965.31;;;12.91;94.56
7918;BME280;4004;42.624;23.386;2023-03-22T13:19:00;93971.47;;;12.88;94.72
7918;BME280;4004;42.624;23.386;2023-03-22T13:21:29;93961.78;;;12.79;94.47
7918;BME280;4004;42.624;23.386;2023-03-22T13:24:00;93964.41;;;12.72;93.62
7918;BME280;4004;42.624;23.386;2023-03-22T13:26:45;93955.50;;;12.68;93.01
7918;BME280;4004;42.624;23.386;2023-03-22T13:29:16;93955.44;;;12.61;92.10